Orbital elements of BREEZE-KM DEB
| Launched | 30 March 2015 |
| Flight ended | – |
| Launch site | Plesetsk Missile and Space Complex, Russia |
| Owner | Commonwealth of Independent States (former USSR) |
| NORAD ID | 41722 |
| Date fetched |
Epoch osculation |
Inc. [°] |
Ecc. | RA asc node [hr] |
Arg Peri. [°] |
Mean anom [°] |
Mean motion [rev/day] |
Abs. mag |
| Date fetched |
Epoch osculation |
Inc. [°] |
Ecc. | RA asc node [hr] |
Arg Peri. [°] |
Mean anom [°] |
Mean motion [rev/day] |
Abs. mag |
| 2026 May 03 17:57 | 2026 Apr 28 18:20:51 | 82.4863 | 0.01787 | 19.2835 | 325.1650 | 33.7851 | 12.70534 | – |
| 2026 May 02 17:57 | 2026 Apr 28 18:20:51 | 82.4863 | 0.01787 | 19.2835 | 325.1650 | 33.7851 | 12.70534 | – |
| 2026 May 01 17:56 | 2026 Apr 28 18:20:51 | 82.4863 | 0.01787 | 19.2835 | 325.1650 | 33.7851 | 12.70534 | – |
| 2026 Apr 30 17:56 | 2026 Apr 28 18:20:51 | 82.4863 | 0.01787 | 19.2835 | 325.1650 | 33.7851 | 12.70534 | – |
| 2026 Apr 29 17:57 | 2026 Apr 21 04:55:05 | 82.4861 | 0.01790 | 19.6143 | 342.5784 | 33.7851 | 12.70534 | – |
| 2026 Apr 28 17:56 | 2026 Apr 21 04:55:05 | 82.4861 | 0.01790 | 19.6143 | 342.5784 | 33.7851 | 12.70534 | – |
| 2026 Apr 27 17:58 | 2026 Apr 21 04:55:05 | 82.4861 | 0.01790 | 19.6143 | 342.5784 | 33.7851 | 12.70534 | – |
| 2026 Apr 26 17:58 | 2026 Apr 21 04:55:05 | 82.4861 | 0.01790 | 19.6143 | 342.5784 | 33.7851 | 12.70534 | – |
| 2026 Apr 25 17:58 | 2026 Apr 21 04:55:05 | 82.4861 | 0.01790 | 19.6143 | 342.5784 | 33.7851 | 12.70534 | – |
| 2026 Apr 24 17:59 | 2026 Apr 21 04:55:05 | 82.4861 | 0.01790 | 19.6143 | 342.5784 | 33.7851 | 12.70534 | – |
| 2026 Apr 23 17:57 | 2026 Apr 16 19:05:04 | 82.4866 | 0.01792 | 19.8073 | 352.7177 | 33.7851 | 12.70534 | – |
| 2026 Apr 22 17:57 | 2026 Apr 16 19:05:04 | 82.4866 | 0.01792 | 19.8073 | 352.7177 | 33.7851 | 12.70534 | – |
| 2026 Apr 21 17:57 | 2026 Apr 16 19:05:04 | 82.4866 | 0.01792 | 19.8073 | 352.7177 | 33.7851 | 12.70534 | – |
| 2026 Apr 20 17:57 | 2026 Apr 16 19:05:04 | 82.4866 | 0.01792 | 19.8073 | 352.7177 | 33.7851 | 12.70534 | – |
| 2026 Apr 19 17:58 | 2026 Apr 16 19:05:04 | 82.4866 | 0.01792 | 19.8073 | 352.7177 | 33.7851 | 12.70534 | – |
| 2026 Apr 18 17:56 | 2026 Apr 12 18:42:01 | 82.4870 | 0.01794 | 19.9830 | 1.9417 | 33.7851 | 12.70534 | – |
| 2026 Apr 16 17:57 | 2026 Apr 12 18:42:01 | 82.4870 | 0.01794 | 19.9830 | 1.9417 | 33.7851 | 12.70534 | – |
| 2026 Apr 14 17:57 | 2026 Apr 12 18:42:01 | 82.4870 | 0.01794 | 19.9830 | 1.9417 | 33.7851 | 12.70534 | – |
| 2026 Apr 13 17:57 | 2026 Apr 12 18:42:01 | 82.4870 | 0.01794 | 19.9830 | 1.9417 | 33.7851 | 12.70534 | – |
| 2026 Apr 12 17:57 | 2026 Apr 07 19:38:15 | 82.4873 | 0.01796 | 20.2001 | 13.3217 | 33.7851 | 12.70534 | – |
| 2026 Apr 11 17:57 | 2026 Apr 07 19:38:15 | 82.4873 | 0.01796 | 20.2001 | 13.3217 | 33.7851 | 12.70534 | – |
| 2026 Apr 10 17:58 | 2026 Apr 07 19:38:15 | 82.4873 | 0.01796 | 20.2001 | 13.3217 | 33.7851 | 12.70534 | – |
| 2026 Apr 09 18:01 | 2026 Apr 07 19:38:15 | 82.4873 | 0.01796 | 20.2001 | 13.3217 | 33.7851 | 12.70534 | – |
| 2026 Apr 08 17:57 | 2026 Apr 07 19:38:15 | 82.4873 | 0.01796 | 20.2001 | 13.3217 | 33.7851 | 12.70534 | – |
| 2026 Apr 07 17:57 | 2026 Mar 31 08:05:52 | 82.4885 | 0.01799 | 20.5273 | 30.4510 | 33.7851 | 12.70534 | – |
| 2026 Apr 06 17:57 | 2026 Mar 31 08:05:52 | 82.4885 | 0.01799 | 20.5273 | 30.4510 | 33.7851 | 12.70534 | – |